createdAt,value
2018-02-05T00:00:11.414Z,98.90
2018-02-05T00:01:11.362Z,98.81
2018-02-05T00:02:11.310Z,98.62
2018-02-05T00:03:11.261Z,98.52
2018-02-05T00:04:11.215Z,98.71
2018-02-05T00:05:11.162Z,99.19
2018-02-05T00:06:11.147Z,99.09
2018-02-05T00:07:11.059Z,99.38
2018-02-05T00:08:11.013Z,98.90
2018-02-05T00:09:10.959Z,98.81
2018-02-05T00:10:10.912Z,99.38
2018-02-05T00:11:10.860Z,98.90
2018-02-05T00:12:10.809Z,98.24
2018-02-05T00:13:10.761Z,98.81
2018-02-05T00:14:10.710Z,98.90
2018-02-05T00:15:10.662Z,98.33
2018-02-05T00:16:10.609Z,99.19
2018-02-05T00:17:10.558Z,98.62
2018-02-05T00:18:10.510Z,99.00
2018-02-05T00:19:10.458Z,98.24
2018-02-05T00:20:10.414Z,99.00
2018-02-05T00:21:10.367Z,98.90
2018-02-05T00:22:10.314Z,98.90
2018-02-05T00:23:10.258Z,98.90
2018-02-05T00:24:10.212Z,98.71
2018-02-05T00:25:10.158Z,97.86
2018-02-05T00:26:10.109Z,98.24
2018-02-05T00:27:10.055Z,97.86
2018-02-05T00:28:10.009Z,98.14
2018-02-05T00:29:09.958Z,97.58
2018-02-05T00:30:09.905Z,98.33
2018-02-05T00:31:09.858Z,97.58
2018-02-05T00:32:09.806Z,98.24
2018-02-05T00:33:09.759Z,98.24
2018-02-05T00:34:09.706Z,97.67
2018-02-05T00:35:09.660Z,97.58
2018-02-05T00:36:09.605Z,97.96
2018-02-05T00:37:09.557Z,97.67
2018-02-05T00:38:09.508Z,97.96
2018-02-05T00:39:09.459Z,98.05
2018-02-05T00:40:09.406Z,98.14
2018-02-05T00:41:09.358Z,97.86
2018-02-05T00:42:09.307Z,97.67
2018-02-05T00:43:09.257Z,97.58
2018-02-05T00:44:09.208Z,97.30
2018-02-05T00:45:09.160Z,97.58
2018-02-05T00:46:09.103Z,97.49
2018-02-05T00:47:09.053Z,97.49
2018-02-05T00:48:09.007Z,97.67
2018-02-05T00:49:08.959Z,97.77
2018-02-05T00:50:08.905Z,97.39
2018-02-05T00:51:08.854Z,97.39
2018-02-05T00:52:08.805Z,97.20
2018-02-05T00:53:08.752Z,97.11
2018-02-05T00:54:08.708Z,97.39
2018-02-05T00:55:08.651Z,97.25
2018-02-05T00:56:08.602Z,97.44
2018-02-05T00:57:08.551Z,97.58
2018-02-05T00:58:08.504Z,97.72
2018-02-05T00:59:08.453Z,97.91
2018-02-05T01:00:08.404Z,97.86
2018-02-05T01:01:08.352Z,97.63
2018-02-05T01:02:08.306Z,97.81
2018-02-05T01:03:08.277Z,97.81
2018-02-05T01:04:08.201Z,97.81
2018-02-05T01:05:08.153Z,98.28
2018-02-05T01:06:08.103Z,98.28
2018-02-05T01:07:08.050Z,98.00
2018-02-05T01:08:08.004Z,98.19
2018-02-05T01:09:07.949Z,98.38
2018-02-05T01:10:07.945Z,97.91
2018-02-05T01:11:07.848Z,97.63
2018-02-05T01:12:07.802Z,98.00
2018-02-05T01:13:07.746Z,97.81
2018-02-05T01:14:07.695Z,97.53
2018-02-05T01:15:07.650Z,98.10
2018-02-05T01:16:07.594Z,97.44
2018-02-05T01:17:07.545Z,97.44
2018-02-05T01:18:07.499Z,98.47
2018-02-05T01:19:07.449Z,97.53
2018-02-05T01:20:07.393Z,97.63
2018-02-05T01:21:07.345Z,98.28
2018-02-05T01:22:07.293Z,98.19
2018-02-05T01:23:07.263Z,98.19
2018-02-05T01:24:07.192Z,98.47
2018-02-05T01:25:07.153Z,97.53
2018-02-05T01:26:07.093Z,98.38
2018-02-05T01:27:07.058Z,98.00
2018-02-05T01:28:07.002Z,98.10
2018-02-05T01:29:06.941Z,98.19
2018-02-05T01:30:06.891Z,97.91
2018-02-05T01:31:06.840Z,97.81
2018-02-05T01:32:06.790Z,98.38
2018-02-05T01:33:06.743Z,98.28
2018-02-05T01:34:06.688Z,98.10
2018-02-05T01:35:06.638Z,98.57
2018-02-05T01:36:06.589Z,98.38
2018-02-05T01:37:06.541Z,97.91
2018-02-05T01:38:06.487Z,98.38
2018-02-05T01:39:06.437Z,98.38
2018-02-05T01:40:06.386Z,98.47
2018-02-05T01:41:06.337Z,98.85
2018-02-05T01:42:06.286Z,98.76
2018-02-05T01:43:06.240Z,99.04
2018-02-05T01:44:06.185Z,99.04
2018-02-05T01:45:06.137Z,98.95
2018-02-05T01:46:06.098Z,98.76
2018-02-05T01:47:06.032Z,98.76
2018-02-05T01:48:05.984Z,98.76
2018-02-05T01:49:05.938Z,98.57
2018-02-05T01:50:05.883Z,98.95
2018-02-05T01:51:05.832Z,98.85
2018-02-05T01:52:05.784Z,98.57
2018-02-05T01:53:05.731Z,98.47
2018-02-05T01:54:05.683Z,98.76
2018-02-05T01:55:05.632Z,98.76
2018-02-05T01:56:05.576Z,98.76
2018-02-05T01:57:05.529Z,99.14
2018-02-05T01:58:05.480Z,99.04
2018-02-05T01:59:05.429Z,99.33
2018-02-05T02:00:05.375Z,98.76
2018-02-05T02:01:05.329Z,98.95
2018-02-05T02:02:05.301Z,98.95
2018-02-05T02:03:05.225Z,99.04
2018-02-05T02:04:05.184Z,98.85
2018-02-05T02:05:05.124Z,98.85
2018-02-05T02:06:05.073Z,99.33
2018-02-05T02:07:05.025Z,99.14
2018-02-05T02:08:04.972Z,99.14
2018-02-05T02:09:04.920Z,99.04
2018-02-05T02:10:04.872Z,98.95
2018-02-05T02:11:04.818Z,98.76
2018-02-05T02:12:04.771Z,98.95
2018-02-05T02:13:04.721Z,98.95
2018-02-05T02:14:04.672Z,98.76
2018-02-05T02:15:04.618Z,98.95
2018-02-05T02:16:04.569Z,98.95
2018-02-05T02:17:04.518Z,98.85
2018-02-05T02:18:04.470Z,98.38
2018-02-05T02:19:04.418Z,98.57
2018-02-05T02:20:04.367Z,98.85
2018-02-05T02:21:04.314Z,98.85
2018-02-05T02:22:04.275Z,98.57
2018-02-05T02:23:04.212Z,98.57
2018-02-05T02:24:04.168Z,98.76
2018-02-05T02:25:04.111Z,99.04
2018-02-05T02:26:04.059Z,98.95
2018-02-05T02:27:04.012Z,98.85
2018-02-05T02:28:03.961Z,98.19
2018-02-05T02:29:03.909Z,98.47
2018-02-05T02:30:03.860Z,98.19
2018-02-05T02:31:03.806Z,98.00
2018-02-05T02:32:03.756Z,98.38
2018-02-05T02:33:03.708Z,98.00
2018-02-05T02:34:03.656Z,98.57
2018-02-05T02:35:03.603Z,98.57
2018-02-05T02:36:03.558Z,97.91
2018-02-05T02:37:03.503Z,97.91
2018-02-05T02:38:03.461Z,98.76
2018-02-05T02:39:03.402Z,98.38
2018-02-05T02:40:03.360Z,98.95
2018-02-05T02:41:03.302Z,98.47
2018-02-05T02:42:03.258Z,98.57
2018-02-05T02:43:03.199Z,97.91
2018-02-05T02:44:03.150Z,97.81
2018-02-05T02:45:03.100Z,98.66
2018-02-05T02:46:03.046Z,98.10
2018-02-05T02:47:02.999Z,97.81
2018-02-05T02:48:02.949Z,98.10
2018-02-05T02:49:02.895Z,98.10
2018-02-05T02:50:02.850Z,98.57
2018-02-05T02:51:02.797Z,98.57
2018-02-05T02:52:02.747Z,98.47
2018-02-05T02:53:02.693Z,98.38
2018-02-05T02:54:02.644Z,98.00
2018-02-05T02:55:02.592Z,98.00
2018-02-05T02:56:02.544Z,98.47
2018-02-05T02:57:02.493Z,98.57
2018-02-05T02:58:02.443Z,97.72
2018-02-05T02:59:02.391Z,98.10
2018-02-05T03:00:02.344Z,98.10
2018-02-05T03:01:02.302Z,98.10
2018-02-05T03:02:02.239Z,98.19
2018-02-05T03:03:02.198Z,98.28
2018-02-05T03:04:02.142Z,97.63
2018-02-05T03:05:02.089Z,98.10
2018-02-05T03:06:02.039Z,98.00
2018-02-05T03:07:01.986Z,98.28
2018-02-05T03:08:01.937Z,97.53
2018-02-05T03:09:01.883Z,97.44
2018-02-05T03:10:01.831Z,97.63
2018-02-05T03:11:01.787Z,97.72
2018-02-05T03:12:01.734Z,97.91
2018-02-05T03:13:01.682Z,97.91
2018-02-05T03:14:01.635Z,97.91
2018-02-05T03:15:01.579Z,97.72
2018-02-05T03:16:01.529Z,97.91
2018-02-05T03:17:01.485Z,98.19
2018-02-05T03:18:01.427Z,97.53
2018-02-05T03:19:01.392Z,98.19
2018-02-05T03:20:01.325Z,97.91
2018-02-05T03:21:01.282Z,97.91
2018-02-05T03:22:01.224Z,98.00
2018-02-05T03:23:01.179Z,97.91
2018-02-05T03:24:01.130Z,97.44
2018-02-05T03:25:01.075Z,98.28
2018-02-05T03:26:01.023Z,98.28
2018-02-05T03:27:00.974Z,98.00
2018-02-05T03:28:00.925Z,98.28
2018-02-05T03:29:00.868Z,98.00
2018-02-05T03:30:00.835Z,98.10
2018-02-05T03:31:00.772Z,98.10
2018-02-05T03:32:00.718Z,98.38
2018-02-05T03:33:00.670Z,98.10
2018-02-05T03:34:00.619Z,98.10
2018-02-05T03:35:00.570Z,98.19
2018-02-05T03:36:00.517Z,97.72
2018-02-05T03:37:00.464Z,97.81
2018-02-05T03:38:00.412Z,98.10
2018-02-05T03:39:00.364Z,98.76
2018-02-05T03:40:00.311Z,98.57
2018-02-05T03:41:00.260Z,98.19
2018-02-05T03:42:00.208Z,98.38
2018-02-05T03:43:00.167Z,98.19
2018-02-05T03:44:00.131Z,98.28
2018-02-05T03:45:00.088Z,98.47
2018-02-05T03:46:00.011Z,98.38
2018-02-05T03:46:59.959Z,98.95
2018-02-05T03:47:59.906Z,98.85
2018-02-05T03:48:59.856Z,98.00
2018-02-05T03:49:59.805Z,98.57
2018-02-05T03:50:59.756Z,98.52
2018-02-05T03:51:59.701Z,98.80
2018-02-05T03:52:59.653Z,98.38
2018-02-05T03:53:59.598Z,98.52
2018-02-05T03:54:59.549Z,98.66
2018-02-05T03:55:59.510Z,98.80
2018-02-05T03:56:59.446Z,98.99
2018-02-05T03:57:59.397Z,98.71
2018-02-05T03:58:59.345Z,98.85
2018-02-05T03:59:59.295Z,98.80
2018-02-05T04:00:59.242Z,98.85
2018-02-05T04:01:59.242Z,98.66
2018-02-05T04:02:59.143Z,98.80
2018-02-05T04:03:59.092Z,98.85
2018-02-05T04:04:59.040Z,98.95
2018-02-05T04:05:58.988Z,98.85
2018-02-05T04:06:58.945Z,98.76
2018-02-05T04:07:58.895Z,98.71
2018-02-05T04:08:58.835Z,98.99
2018-02-05T04:09:58.789Z,98.76
2018-02-05T04:10:58.736Z,98.76
2018-02-05T04:11:58.684Z,98.71
2018-02-05T04:12:58.637Z,98.33
2018-02-05T04:13:58.581Z,98.33
2018-02-05T04:14:58.530Z,99.08
2018-02-05T04:15:58.479Z,98.33
2018-02-05T04:16:58.436Z,98.90
2018-02-05T04:17:58.384Z,98.90
2018-02-05T04:18:58.331Z,98.71
2018-02-05T04:19:58.294Z,98.80
2018-02-05T04:20:58.230Z,98.90
2018-02-05T04:21:58.179Z,99.08
2018-02-05T04:22:58.125Z,99.18
2018-02-05T04:23:58.074Z,99.65
2018-02-05T04:24:58.025Z,99.08
2018-02-05T04:25:57.973Z,99.18
2018-02-05T04:26:57.921Z,99.08
2018-02-05T04:27:57.871Z,98.99
2018-02-05T04:28:57.817Z,99.08
2018-02-05T04:29:57.771Z,98.90
2018-02-05T04:30:57.734Z,99.18
2018-02-05T04:31:57.667Z,98.90
2018-02-05T04:32:57.614Z,98.71
2018-02-05T04:33:57.564Z,98.90
2018-02-05T04:34:57.512Z,98.80
2018-02-05T04:35:57.462Z,98.90
2018-02-05T04:36:57.412Z,98.71
2018-02-05T04:37:57.358Z,98.71
2018-02-05T04:38:57.317Z,98.99
2018-02-05T04:39:57.262Z,98.80
2018-02-05T04:40:57.213Z,99.18
2018-02-05T04:41:57.158Z,99.18
2018-02-05T04:42:57.108Z,98.90
2018-02-05T04:43:57.062Z,99.08
2018-02-05T04:44:57.006Z,98.90
2018-02-05T04:45:56.968Z,98.99
2018-02-05T04:46:56.911Z,98.71
2018-02-05T04:47:56.853Z,98.80
2018-02-05T04:48:56.807Z,98.90
2018-02-05T04:49:56.751Z,99.18
2018-02-05T04:50:56.705Z,98.90
2018-02-05T04:51:56.649Z,98.99
2018-02-05T04:52:56.601Z,98.99
2018-02-05T04:53:56.545Z,98.90
2018-02-05T04:54:56.500Z,98.80
2018-02-05T04:55:56.444Z,98.99
2018-02-05T04:56:56.396Z,98.99
2018-02-05T04:57:56.343Z,99.56
2018-02-05T04:58:56.294Z,99.56
2018-02-05T04:59:56.250Z,99.65
2018-02-05T05:00:56.194Z,99.46
2018-02-05T05:01:56.144Z,99.46
2018-02-05T05:02:56.088Z,99.46
2018-02-05T05:03:56.067Z,99.56
2018-02-05T05:04:55.988Z,99.56
2018-02-05T05:05:55.933Z,99.65
2018-02-05T05:06:55.885Z,99.18
2018-02-05T05:07:55.839Z,99.75
2018-02-05T05:08:55.783Z,99.46
2018-02-05T05:09:55.733Z,99.08
2018-02-05T05:10:55.681Z,98.90
2018-02-05T05:11:55.721Z,98.71
2018-02-05T05:12:55.580Z,98.80
2018-02-05T05:13:55.529Z,98.71
2018-02-05T05:14:55.475Z,98.99
2018-02-05T05:15:55.426Z,98.80
2018-02-05T05:16:55.372Z,98.99
2018-02-05T05:17:55.324Z,98.52
2018-02-05T05:18:55.282Z,98.43
2018-02-05T05:19:55.220Z,98.71
2018-02-05T05:20:55.171Z,98.71
2018-02-05T05:21:55.119Z,98.61
2018-02-05T05:22:55.078Z,98.99
2018-02-05T05:23:55.015Z,98.80
2018-02-05T05:24:54.967Z,98.71
2018-02-05T05:25:54.913Z,98.80
2018-02-05T05:26:54.863Z,98.90
2018-02-05T05:27:54.811Z,98.05
2018-02-05T05:28:54.763Z,98.90
2018-02-05T05:29:54.715Z,97.96
2018-02-05T05:30:54.662Z,98.33
2018-02-05T05:31:54.616Z,98.99
2018-02-05T05:32:54.560Z,98.80
2018-02-05T05:33:54.510Z,98.61
2018-02-05T05:34:54.461Z,98.99
2018-02-05T05:35:54.406Z,98.80
2018-02-05T05:36:54.362Z,98.90
2018-02-05T05:37:54.305Z,98.80
2018-02-05T05:38:54.272Z,98.43
2018-02-05T05:39:54.205Z,98.61
2018-02-05T05:40:54.147Z,98.24
2018-02-05T05:41:54.103Z,97.96
2018-02-05T05:42:54.053Z,98.80
2018-02-05T05:43:53.998Z,98.90
2018-02-05T05:44:53.942Z,98.80
2018-02-05T05:45:53.890Z,98.90
2018-02-05T05:46:53.840Z,98.80
2018-02-05T05:47:53.790Z,98.61
2018-02-05T05:48:53.743Z,98.71
2018-02-05T05:49:53.690Z,98.52
2018-02-05T05:50:53.635Z,98.33
2018-02-05T05:51:53.586Z,99.08
2018-02-05T05:52:53.537Z,99.08
2018-02-05T05:53:53.482Z,98.90
2018-02-05T05:54:53.433Z,98.99
2018-02-05T05:55:53.381Z,98.61
2018-02-05T05:56:53.331Z,98.90
2018-02-05T05:57:53.280Z,99.08
2018-02-05T05:58:53.226Z,98.80
2018-02-05T05:59:53.179Z,98.71
2018-02-05T06:00:53.129Z,98.80
2018-02-05T06:01:53.073Z,98.80
2018-02-05T06:02:53.025Z,98.99
2018-02-05T06:03:52.971Z,98.80
2018-02-05T06:04:52.924Z,99.08
2018-02-05T06:05:52.875Z,99.18
2018-02-05T06:06:52.818Z,98.61
2018-02-05T06:07:52.768Z,98.33
2018-02-05T06:08:52.715Z,98.71
2018-02-05T06:09:52.665Z,98.71
2018-02-05T06:10:52.618Z,98.43
2018-02-05T06:11:52.565Z,98.43
2018-02-05T06:12:52.512Z,98.61
2018-02-05T06:13:52.463Z,98.52
2018-02-05T06:14:52.410Z,99.08
2018-02-05T06:15:52.359Z,98.71
2018-02-05T06:16:52.309Z,98.80
2018-02-05T06:17:52.256Z,98.71
2018-02-05T06:18:52.207Z,98.52
2018-02-05T06:19:52.155Z,98.52
2018-02-05T06:20:52.105Z,98.61
2018-02-05T06:21:52.054Z,98.52
2018-02-05T06:22:52.006Z,98.43
2018-02-05T06:23:51.952Z,99.27
2018-02-05T06:24:51.901Z,98.43
2018-02-05T06:25:51.849Z,98.52
2018-02-05T06:26:51.796Z,98.71
2018-02-05T06:27:51.749Z,98.52
2018-02-05T06:28:51.695Z,98.71
2018-02-05T06:29:51.646Z,98.33
2018-02-05T06:30:51.599Z,98.90
2018-02-05T06:31:51.549Z,98.90
2018-02-05T06:32:51.494Z,99.08
2018-02-05T06:33:51.444Z,98.52
2018-02-05T06:34:51.390Z,98.43
2018-02-05T06:35:51.337Z,98.71
2018-02-05T06:36:51.292Z,98.71
2018-02-05T06:37:51.237Z,98.61
2018-02-05T06:38:51.186Z,98.80
2018-02-05T06:39:51.133Z,98.52
2018-02-05T06:40:51.081Z,98.61
2018-02-05T06:41:51.040Z,98.61
2018-02-05T06:42:50.979Z,98.71
2018-02-05T06:43:50.929Z,98.99
2018-02-05T06:44:50.876Z,98.71
2018-02-05T06:45:50.825Z,98.80
2018-02-05T06:46:50.776Z,98.80
2018-02-05T06:47:50.723Z,98.71
2018-02-05T06:48:50.678Z,99.08
2018-02-05T06:49:50.646Z,98.99
2018-02-05T06:50:50.570Z,98.80
2018-02-05T06:51:50.520Z,98.80
2018-02-05T06:52:50.468Z,98.61
2018-02-05T06:53:50.458Z,98.71
2018-02-05T06:54:50.365Z,98.80
2018-02-05T06:55:50.314Z,98.71
2018-02-05T06:56:50.263Z,98.80
2018-02-05T06:57:50.213Z,98.43
2018-02-05T06:58:50.161Z,98.80
2018-02-05T06:59:50.111Z,98.71
2018-02-05T07:00:50.064Z,98.71
2018-02-05T07:01:50.009Z,98.14
2018-02-05T07:02:49.958Z,98.52
2018-02-05T07:03:49.905Z,97.67
2018-02-05T07:04:49.852Z,98.05
2018-02-05T07:05:49.801Z,98.24
2018-02-05T07:06:49.752Z,97.86
2018-02-05T07:07:49.699Z,98.14
2018-02-05T07:08:49.650Z,98.24
2018-02-05T07:09:49.599Z,97.96
2018-02-05T07:10:49.547Z,97.86
2018-02-05T07:11:49.494Z,97.96
2018-02-05T07:12:49.444Z,97.67
2018-02-05T07:13:49.396Z,98.05
2018-02-05T07:14:49.344Z,97.58
2018-02-05T07:15:49.291Z,97.86
2018-02-05T07:16:49.244Z,97.58
2018-02-05T07:17:49.189Z,97.86
2018-02-05T07:18:49.141Z,97.48
2018-02-05T07:19:49.089Z,97.77
2018-02-05T07:20:49.040Z,97.29
2018-02-05T07:21:48.984Z,97.10
2018-02-05T07:22:48.936Z,97.10
2018-02-05T07:23:48.887Z,97.01
2018-02-05T07:24:48.833Z,96.63
2018-02-05T07:25:48.781Z,96.54
2018-02-05T07:26:48.730Z,96.35
2018-02-05T07:27:48.679Z,97.01
2018-02-05T07:28:48.627Z,96.82
2018-02-05T07:29:48.575Z,96.35
2018-02-05T07:30:48.525Z,96.82
2018-02-05T07:31:48.473Z,96.25
2018-02-05T07:32:48.425Z,96.44
2018-02-05T07:33:48.402Z,96.54
2018-02-05T07:34:48.324Z,96.35
2018-02-05T07:35:48.269Z,96.44
2018-02-05T07:36:48.222Z,96.06
2018-02-05T07:37:48.172Z,96.06
2018-02-05T07:38:48.127Z,96.06
2018-02-05T07:39:48.071Z,95.87
2018-02-05T07:40:48.016Z,95.97
2018-02-05T07:41:47.969Z,96.16
2018-02-05T07:42:47.909Z,95.78
2018-02-05T07:43:47.858Z,95.97
2018-02-05T07:44:47.814Z,95.87
2018-02-05T07:45:47.759Z,96.06
2018-02-05T07:46:47.707Z,95.21
2018-02-05T07:47:47.656Z,96.06
2018-02-05T07:48:47.605Z,95.31
2018-02-05T07:49:47.554Z,95.03
2018-02-05T07:50:47.505Z,94.84
2018-02-05T07:51:47.454Z,94.46
2018-02-05T07:52:47.407Z,94.65
2018-02-05T07:53:47.352Z,94.74
2018-02-05T07:54:47.302Z,94.65
2018-02-05T07:55:47.252Z,94.27
2018-02-05T07:56:47.198Z,95.12
2018-02-05T07:57:47.147Z,94.93
2018-02-05T07:58:47.097Z,94.27
2018-02-05T07:59:47.048Z,94.18
2018-02-05T08:00:46.998Z,94.46
2018-02-05T08:01:46.943Z,94.46
2018-02-05T08:02:46.891Z,93.99
2018-02-05T08:03:46.842Z,94.56
2018-02-05T08:04:46.792Z,93.80
2018-02-05T08:05:46.739Z,93.89
2018-02-05T08:06:46.688Z,94.08
2018-02-05T08:07:46.636Z,94.46
2018-02-05T08:08:46.588Z,93.61
2018-02-05T08:09:46.532Z,93.75
2018-02-05T08:10:46.487Z,93.37
2018-02-05T08:11:46.434Z,93.47
2018-02-05T08:12:46.391Z,93.56
2018-02-05T08:13:46.329Z,92.90
2018-02-05T08:14:46.279Z,92.94
2018-02-05T08:15:46.233Z,93.09
2018-02-05T08:16:46.181Z,93.28
2018-02-05T08:17:46.128Z,93.37
2018-02-05T08:18:46.078Z,93.47
2018-02-05T08:19:46.027Z,93.56
2018-02-05T08:20:45.976Z,92.61
2018-02-05T08:21:45.926Z,92.99
2018-02-05T08:22:45.877Z,92.90
2018-02-05T08:23:45.823Z,92.80
2018-02-05T08:24:45.801Z,92.99
2018-02-05T08:25:45.727Z,92.90
2018-02-05T08:26:45.670Z,93.09
2018-02-05T08:27:45.623Z,93.09
2018-02-05T08:28:45.569Z,92.99
2018-02-05T08:29:45.570Z,92.90
2018-02-05T08:30:45.469Z,92.52
2018-02-05T08:31:45.419Z,92.52
2018-02-05T08:32:45.369Z,92.71
2018-02-05T08:33:45.315Z,92.52
2018-02-05T08:34:45.264Z,92.24
2018-02-05T08:35:45.217Z,92.05
2018-02-05T08:36:45.164Z,91.67
2018-02-05T08:37:45.113Z,92.61
2018-02-05T08:38:45.085Z,92.52
2018-02-05T08:39:45.014Z,92.71
2018-02-05T08:40:44.962Z,91.86
2018-02-05T08:41:44.910Z,91.77
2018-02-05T08:42:44.863Z,92.33
2018-02-05T08:43:44.809Z,91.77
2018-02-05T08:44:44.758Z,91.58
2018-02-05T08:45:44.708Z,91.58
2018-02-05T08:46:44.658Z,91.77
2018-02-05T08:47:44.608Z,91.77
2018-02-05T08:48:44.556Z,91.58
2018-02-05T08:49:44.505Z,91.29
2018-02-05T08:50:44.455Z,90.82
2018-02-05T08:51:44.408Z,90.91
2018-02-05T08:52:44.356Z,91.01
2018-02-05T08:53:44.303Z,90.44
2018-02-05T08:54:44.256Z,90.44
2018-02-05T08:55:44.230Z,90.54
2018-02-05T08:56:44.155Z,90.44
2018-02-05T08:57:44.103Z,90.54
2018-02-05T08:58:44.050Z,90.35
2018-02-05T08:59:44.001Z,89.78
2018-02-05T09:00:43.952Z,89.50
2018-02-05T09:01:43.899Z,89.40
2018-02-05T09:02:43.855Z,89.59
2018-02-05T09:03:43.801Z,89.03
2018-02-05T09:04:43.756Z,89.26
2018-02-05T09:05:43.698Z,88.65
2018-02-05T09:06:43.649Z,88.36
2018-02-05T09:07:43.598Z,88.88
2018-02-05T09:08:43.556Z,89.45
2018-02-05T09:09:43.499Z,89.36
2018-02-05T09:10:43.453Z,89.54
2018-02-05T09:11:43.397Z,88.60
2018-02-05T09:12:43.348Z,88.60
2018-02-05T09:13:43.300Z,88.41
2018-02-05T09:14:43.249Z,89.17
2018-02-05T09:15:43.196Z,88.79
2018-02-05T09:16:43.147Z,88.12
2018-02-05T09:17:43.097Z,87.93
2018-02-05T09:18:43.045Z,88.41
2018-02-05T09:19:43.048Z,88.60
2018-02-05T09:20:42.945Z,88.12
2018-02-05T09:21:42.896Z,87.84
2018-02-05T09:22:42.848Z,88.31
2018-02-05T09:23:42.794Z,87.84
2018-02-05T09:24:42.746Z,87.27
2018-02-05T09:25:42.696Z,87.46
2018-02-05T09:26:42.641Z,87.18
2018-02-05T09:27:42.593Z,87.46
2018-02-05T09:28:42.569Z,87.84
2018-02-05T09:29:42.496Z,88.03
2018-02-05T09:30:42.445Z,86.80
2018-02-05T09:31:42.397Z,86.99
2018-02-05T09:32:42.352Z,86.42
2018-02-05T09:33:42.297Z,86.61
2018-02-05T09:34:42.257Z,86.23
2018-02-05T09:35:42.197Z,86.23
2018-02-05T09:36:42.146Z,85.66
2018-02-05T09:37:42.094Z,85.38
2018-02-05T09:38:42.043Z,85.10
2018-02-05T09:39:41.992Z,85.47
2018-02-05T09:40:41.941Z,86.14
2018-02-05T09:41:41.891Z,85.61
2018-02-05T09:42:41.844Z,86.09
2018-02-05T09:43:41.796Z,85.33
2018-02-05T09:44:41.741Z,85.99
2018-02-05T09:45:41.694Z,84.95
2018-02-05T09:46:41.646Z,85.71
2018-02-05T09:47:41.591Z,84.95
2018-02-05T09:48:41.547Z,85.05
2018-02-05T09:49:41.492Z,85.14
2018-02-05T09:50:41.443Z,84.48
2018-02-05T09:51:41.390Z,84.67
2018-02-05T09:52:41.346Z,84.48
2018-02-05T09:53:41.292Z,84.20
2018-02-05T09:54:41.245Z,85.05
2018-02-05T09:55:41.192Z,85.14
2018-02-05T09:56:41.147Z,84.86
2018-02-05T09:57:41.093Z,85.71
2018-02-05T09:58:41.044Z,84.29
2018-02-05T09:59:40.994Z,84.39
2018-02-05T10:00:40.960Z,84.20
2018-02-05T10:01:40.891Z,84.01
2018-02-05T10:02:40.844Z,83.63
2018-02-05T10:03:40.798Z,84.67
2018-02-05T10:04:40.746Z,84.29
2018-02-05T10:05:40.697Z,84.48
2018-02-05T10:06:40.649Z,84.67
2018-02-05T10:07:40.602Z,83.91
2018-02-05T10:08:40.550Z,84.10
2018-02-05T10:09:40.498Z,84.10
2018-02-05T10:10:40.445Z,83.72
2018-02-05T10:11:40.397Z,84.10
2018-02-05T10:12:40.348Z,83.34
2018-02-05T10:13:40.300Z,83.06
2018-02-05T10:14:40.247Z,84.29
2018-02-05T10:15:40.200Z,84.58
2018-02-05T10:16:40.147Z,84.10
2018-02-05T10:17:40.097Z,84.42
2018-02-05T10:18:40.047Z,84.61
2018-02-05T10:19:40.001Z,84.42
2018-02-05T10:20:39.951Z,83.76
2018-02-05T10:21:39.901Z,84.23
2018-02-05T10:22:39.852Z,83.67
2018-02-05T10:23:39.806Z,83.39
2018-02-05T10:24:39.753Z,82.72
2018-02-05T10:25:39.704Z,83.20
2018-02-05T10:26:39.652Z,82.53
2018-02-05T10:27:39.604Z,82.82
2018-02-05T10:28:39.555Z,82.91
2018-02-05T10:29:39.506Z,81.68
2018-02-05T10:30:39.456Z,82.34
2018-02-05T10:31:39.406Z,81.87
2018-02-05T10:32:39.358Z,81.40
2018-02-05T10:33:39.308Z,82.15
2018-02-05T10:34:39.259Z,81.49
2018-02-05T10:35:39.213Z,81.68
2018-02-05T10:36:39.163Z,81.68
2018-02-05T10:37:39.113Z,81.40
2018-02-05T10:38:39.066Z,81.40
2018-02-05T10:39:39.013Z,81.59
2018-02-05T10:40:38.964Z,82.44
2018-02-05T10:41:38.915Z,82.34
2018-02-05T10:42:38.870Z,82.44
2018-02-05T10:43:38.818Z,81.68
2018-02-05T10:44:38.769Z,81.87
2018-02-05T10:45:38.719Z,81.87
2018-02-05T10:46:38.670Z,82.44
2018-02-05T10:47:38.624Z,82.06
2018-02-05T10:48:38.575Z,82.53
2018-02-05T10:49:38.528Z,82.20
2018-02-05T10:50:38.473Z,81.59
2018-02-05T10:51:38.425Z,82.29
2018-02-05T10:52:38.379Z,82.67
2018-02-05T10:53:38.328Z,81.44
2018-02-05T10:54:38.279Z,80.77
2018-02-05T10:55:38.232Z,80.77
2018-02-05T10:56:38.183Z,80.40
2018-02-05T10:57:38.131Z,81.15
2018-02-05T10:58:38.084Z,80.68
2018-02-05T10:59:38.038Z,81.44
2018-02-05T11:00:38.029Z,82.20
2018-02-05T11:01:37.937Z,80.96
2018-02-05T11:02:37.889Z,81.44
2018-02-05T11:03:37.838Z,81.06
2018-02-05T11:04:37.792Z,81.34
2018-02-05T11:05:37.741Z,80.77
2018-02-05T11:06:37.696Z,81.44
2018-02-05T11:07:37.647Z,80.77
2018-02-05T11:08:37.597Z,81.15
2018-02-05T11:09:37.545Z,80.96
2018-02-05T11:10:37.497Z,81.44
2018-02-05T11:11:37.452Z,81.63
2018-02-05T11:12:37.402Z,82.67
2018-02-05T11:13:37.358Z,82.67
2018-02-05T11:14:37.303Z,82.10
2018-02-05T11:15:37.256Z,81.06
2018-02-05T11:16:37.204Z,81.34
2018-02-05T11:17:37.153Z,81.15
2018-02-05T11:18:37.109Z,81.92
2018-02-05T11:19:37.058Z,80.96
2018-02-05T11:20:37.011Z,80.49
2018-02-05T11:21:36.964Z,80.58
2018-02-05T11:22:36.913Z,80.30
2018-02-05T11:23:36.865Z,80.11
2018-02-05T11:24:36.820Z,80.58
2018-02-05T11:25:36.766Z,79.55
2018-02-05T11:26:36.720Z,79.93
2018-02-05T11:28:36.628Z,80.02
2018-02-05T11:29:36.571Z,80.77
2018-02-05T11:30:36.523Z,81.63
2018-02-05T11:31:36.474Z,80.68
2018-02-05T11:32:36.430Z,80.11
2018-02-05T11:33:36.383Z,79.74
2018-02-05T11:34:36.332Z,79.55
2018-02-05T11:35:36.285Z,79.64
2018-02-05T11:36:36.234Z,79.07
2018-02-05T11:37:36.184Z,78.79
2018-02-05T11:38:36.137Z,79.17
2018-02-05T11:39:36.095Z,79.64
2018-02-05T11:40:36.039Z,79.64
2018-02-05T11:41:35.990Z,80.21
2018-02-05T11:42:35.947Z,79.64
2018-02-05T11:43:35.895Z,80.49
2018-02-05T11:44:35.848Z,79.36
2018-02-05T11:45:35.797Z,79.45
2018-02-05T11:46:35.748Z,79.02
2018-02-05T11:47:35.699Z,78.59
2018-02-05T11:48:35.652Z,78.98
2018-02-05T11:49:35.602Z,79.21
2018-02-05T11:50:35.553Z,79.02
2018-02-05T11:51:35.547Z,78.54
2018-02-05T11:52:35.462Z,78.26
2018-02-05T11:53:35.411Z,78.16
2018-02-05T11:54:35.361Z,78.45
2018-02-05T11:55:35.315Z,78.45
2018-02-05T11:56:35.268Z,77.22
2018-02-05T11:57:35.220Z,77.12
2018-02-05T11:58:35.173Z,77.88
2018-02-05T11:59:35.120Z,77.97
2018-02-05T12:00:35.076Z,77.12
2018-02-05T12:01:35.024Z,77.31
2018-02-05T12:02:34.978Z,78.26
2018-02-05T12:03:34.928Z,77.97
2018-02-05T12:04:34.879Z,79.11
2018-02-05T12:05:34.830Z,77.88
2018-02-05T12:06:34.783Z,78.35
2018-02-05T12:07:34.737Z,78.26
2018-02-05T12:08:34.686Z,77.12
2018-02-05T12:09:34.638Z,77.03
2018-02-05T12:10:34.592Z,77.69
2018-02-05T12:11:34.546Z,77.12
2018-02-05T12:12:34.494Z,76.74
2018-02-05T12:13:34.447Z,76.36
2018-02-05T12:14:34.401Z,76.55
2018-02-05T12:15:34.357Z,76.50
2018-02-05T12:16:34.308Z,76.40
2018-02-05T12:17:34.257Z,75.74
2018-02-05T12:18:34.208Z,75.93
2018-02-05T12:19:34.165Z,75.36
2018-02-05T12:20:34.117Z,76.03
2018-02-05T12:21:34.065Z,76.12
2018-02-05T12:22:34.020Z,75.07
2018-02-05T12:23:33.970Z,75.55
2018-02-05T12:24:33.925Z,75.84
2018-02-05T12:25:33.878Z,74.98
2018-02-05T12:26:33.827Z,75.17
2018-02-05T12:27:33.790Z,74.22
2018-02-05T12:28:33.731Z,75.96
2018-02-05T12:29:33.684Z,76.54
2018-02-05T12:30:33.639Z,74.92
2018-02-05T12:31:33.592Z,73.12
2018-02-05T12:32:33.543Z,74.45
2018-02-05T12:33:33.492Z,74.45
2018-02-05T12:34:33.447Z,73.97
2018-02-05T12:35:33.402Z,71.98
2018-02-05T12:36:33.353Z,71.98
2018-02-05T12:37:33.308Z,72.23
2018-02-05T12:38:33.262Z,72.61
2018-02-05T12:39:33.208Z,72.61
2018-02-05T12:40:33.167Z,72.33
2018-02-05T12:41:33.122Z,72.33
2018-02-05T12:42:33.075Z,73.46
2018-02-05T12:43:33.022Z,73.31
2018-02-05T12:44:32.975Z,73.41
2018-02-05T12:45:32.926Z,73.12
2018-02-05T12:46:32.878Z,72.45
2018-02-05T12:47:32.888Z,73.31
2018-02-05T12:48:32.787Z,74.64
2018-02-05T12:49:32.737Z,73.03
2018-02-05T12:50:32.693Z,71.89
2018-02-05T12:51:32.647Z,72.64
2018-02-05T12:52:32.596Z,72.08